Time;durP1;ratioP1;P1;durP2;ratioP2;P2;SDS_P1;SDS_P2;PMS_P1;PMS_P2;Temp;Humidity;BMP_temperature;BMP_pressure;BME280_temperature;BME280_humidity;BME280_pressure;Samples;Min_cycle;Max_cycle;Signal;HPM_P1;HPM_P2
2022/11/14 00:00:34;;;;;;;135.13;65.93;;;;;;;5.51;100.00;95738.75;5016460;28;20558;-76
2022/11/14 00:03:01;;;;;;;137.87;66.77;;;;;;;5.64;100.00;95754.56;5016817;28;20206;-76
2022/11/14 00:05:29;;;;;;;139.20;66.63;;;;;;;5.61;100.00;95750.53;5016074;28;20234;-76
2022/11/14 00:07:55;;;;;;;141.57;68.90;;;;;;;5.57;100.00;95744.06;5016609;28;20233;-74
2022/11/14 00:10:23;;;;;;;154.43;74.67;;;;;;;5.56;100.00;95746.81;5016411;28;20231;-75
2022/11/14 00:12:51;;;;;;;159.43;77.53;;;;;;;5.57;100.00;95748.44;5015372;28;20213;-75
2022/11/14 00:15:18;;;;;;;174.13;82.20;;;;;;;5.56;100.00;95747.63;5017788;28;20870;-75
2022/11/14 00:17:44;;;;;;;172.63;81.53;;;;;;;5.54;100.00;95757.28;5014508;28;20265;-74
2022/11/14 00:20:12;;;;;;;159.90;78.20;;;;;;;5.56;100.00;95747.63;5017317;28;20197;-74
2022/11/14 00:22:39;;;;;;;155.77;77.53;;;;;;;5.53;100.00;95747.94;5015723;28;20206;-76
2022/11/14 00:25:06;;;;;;;154.30;78.90;;;;;;;5.50;100.00;95750.03;5015115;28;20213;-76
2022/11/14 00:27:33;;;;;;;170.33;80.07;;;;;;;5.38;100.00;95744.38;5019318;28;20677;-76
2022/11/14 00:30:01;;;;;;;154.30;76.27;;;;;;;5.41;100.00;95738.09;5017200;28;20195;-76
2022/11/14 00:32:28;;;;;;;159.87;75.77;;;;;;;5.39;100.00;95742.63;5018063;28;20198;-76
2022/11/14 00:34:54;;;;;;;161.57;77.03;;;;;;;5.31;100.00;95753.69;5022378;28;20271;-75
2022/11/14 00:37:21;;;;;;;172.13;82.23;;;;;;;5.29;100.00;95749.66;5016110;28;20224;-77
2022/11/14 00:39:48;;;;;;;163.90;79.70;;;;;;;5.35;100.00;95755.00;5016283;28;20199;-75
2022/11/14 00:42:15;;;;;;;158.03;71.20;;;;;;;5.32;100.00;95749.34;5017191;28;20202;-75
2022/11/14 00:44:42;;;;;;;163.07;80.53;;;;;;;5.30;100.00;95752.09;5018963;28;20198;-76
2022/11/14 00:47:10;;;;;;;142.60;73.30;;;;;;;5.28;100.00;95746.28;5014458;28;20194;-76
2022/11/14 00:49:36;;;;;;;134.20;70.10;;;;;;;5.29;100.00;95749.66;5018789;28;20198;-77
2022/11/14 00:52:03;;;;;;;155.87;78.80;;;;;;;5.24;100.00;95745.00;5019537;28;20231;-77
2022/11/14 00:54:30;;;;;;;163.53;78.37;;;;;;;5.35;100.00;95739.53;5016018;28;20200;-77
2022/11/14 00:56:57;;;;;;;153.53;76.90;;;;;;;5.34;100.00;95737.91;5020150;28;20252;-75
2022/11/14 00:59:24;;;;;;;139.77;75.53;;;;;;;5.29;100.00;95737.59;5021793;28;20214;-77
2022/11/14 01:01:51;;;;;;;155.87;76.60;;;;;;;5.31;100.00;95748.53;5013590;28;20194;-76
2022/11/14 01:04:19;;;;;;;153.43;78.90;;;;;;;5.25;100.00;95744.03;5022180;28;20313;-76
2022/11/14 01:06:59;;;;;;;146.13;74.07;;;;;;;5.22;100.00;95739.22;5016455;28;20213;-76
2022/11/14 01:09:25;;;;;;;151.40;75.37;;;;;;;5.18;100.00;95745.63;5026397;28;20737;-77
2022/11/14 01:11:52;;;;;;;154.43;75.27;;;;;;;5.18;100.00;95740.47;5022343;28;20635;-78
2022/11/14 01:14:19;;;;;;;148.93;72.07;;;;;;;5.09;100.00;95731.09;5027173;28;20653;-76
2022/11/14 01:16:46;;;;;;;142.43;72.33;;;;;;;5.17;100.00;95738.06;5019836;28;20214;-76
2022/11/14 01:19:12;;;;;;;144.00;70.33;;;;;;;5.15;100.00;95739.03;5021662;28;20200;-76
2022/11/14 01:21:40;;;;;;;139.53;71.53;;;;;;;5.07;100.00;95736.44;5021381;28;20192;-76
2022/11/14 01:24:07;;;;;;;133.03;66.90;;;;;;;5.10;100.00;95737.88;5022028;28;20215;-75
2022/11/14 01:26:34;;;;;;;119.23;57.33;;;;;;;5.04;100.00;95733.34;5019187;28;20218;-75
2022/11/14 01:29:01;;;;;;;114.13;56.87;;;;;;;5.03;100.00;95736.88;5022235;28;20216;-75
2022/11/14 01:31:28;;;;;;;111.97;53.37;;;;;;;5.05;100.00;95737.56;5021404;28;20218;-75
2022/11/14 01:33:55;;;;;;;117.67;57.17;;;;;;;5.05;100.00;95727.25;5019388;28;20216;-75
2022/11/14 01:36:22;;;;;;;112.07;57.03;;;;;;;4.97;100.00;95719.47;5023436;28;20615;-76
2022/11/14 01:38:53;;;;;;;97.97;49.83;;;;;;;5.06;100.00;95726.28;5020584;28;20209;-77
2022/11/14 01:41:21;;;;;;;92.50;45.97;;;;;;;5.08;100.00;95717.41;5022121;28;20272;-76
2022/11/14 01:43:48;;;;;;;90.90;45.10;;;;;;;5.09;100.00;95716.47;5023995;28;20278;-76
2022/11/14 01:46:19;;;;;;;94.10;45.97;;;;;;;5.07;100.00;95718.41;5021531;28;20627;-77
2022/11/14 01:48:51;;;;;;;89.57;44.10;;;;;;;5.00;100.00;95707.09;5019924;28;20243;-76
2022/11/14 01:51:23;;;;;;;90.80;45.43;;;;;;;5.03;100.00;95706.78;5021466;28;20217;-75
2022/11/14 01:53:54;;;;;;;87.37;43.47;;;;;;;5.12;100.00;95710.19;5020144;28;20670;-76
2022/11/14 01:56:27;;;;;;;89.10;43.73;;;;;;;5.04;100.00;95711.00;5023383;28;20210;-77
2022/11/14 01:58:58;;;;;;;84.67;42.37;;;;;;;5.05;100.00;95710.00;5017160;28;20208;-75
2022/11/14 02:01:25;;;;;;;81.60;41.00;;;;;;;5.06;100.00;95706.47;5018873;28;20200;-76
2022/11/14 02:03:55;;;;;;;87.83;43.20;;;;;;;5.00;100.00;95696.00;5021014;28;20201;-76
2022/11/14 02:06:26;;;;;;;83.50;42.83;;;;;;;5.06;100.00;95696.16;5022859;28;20196;-75
2022/11/14 02:08:55;;;;;;;83.73;43.37;;;;;;;4.93;100.00;95688.09;5017184;28;20873;-76
2022/11/14 02:11:22;;;;;;;90.33;44.90;;;;;;;4.99;100.00;95694.41;5019224;28;20571;-76
2022/11/14 02:13:49;;;;;;;83.70;43.73;;;;;;;4.84;100.00;95677.94;5019074;28;20673;-75
2022/11/14 02:16:16;;;;;;;93.47;44.03;;;;;;;4.93;100.00;95684.72;5018584;28;20209;-75
2022/11/14 02:18:43;;;;;;;84.90;42.10;;;;;;;4.92;100.00;95688.25;5017144;28;20207;-76
2022/11/14 02:21:12;;;;;;;85.30;43.80;;;;;;;4.83;100.00;95681.47;5024814;28;20192;-76
2022/11/14 02:23:39;;;;;;;88.17;43.87;;;;;;;4.79;100.00;95680.19;5025925;28;20207;-76
2022/11/14 02:26:05;;;;;;;87.10;43.67;;;;;;;4.78;100.00;95670.84;5018313;28;20196;-75
2022/11/14 02:28:32;;;;;;;88.63;42.57;;;;;;;4.82;100.00;95679.88;5021253;28;20202;-75
2022/11/14 02:30:59;;;;;;;80.17;41.83;;;;;;;4.71;100.00;95675.78;5020536;28;20224;-76
2022/11/14 02:33:26;;;;;;;86.40;42.00;;;;;;;4.77;100.00;95680.31;5018338;28;20199;-75
2022/11/14 02:35:52;;;;;;;90.67;42.63;;;;;;;4.75;100.00;95679.69;5016925;28;20199;-77
2022/11/14 02:38:21;;;;;;;86.30;44.47;;;;;;;4.75;100.00;95677.09;5020946;28;20201;-76
2022/11/14 02:40:47;;;;;;;87.90;43.70;;;;;;;4.78;100.00;95681.13;5018352;28;20196;-77
2022/11/14 02:43:14;;;;;;;81.37;42.03;;;;;;;4.78;100.00;95679.38;5019788;28;20199;-76
2022/11/14 02:45:41;;;;;;;87.60;42.57;;;;;;;4.74;100.00;95683.22;5020313;28;20264;-76
2022/11/14 02:48:08;;;;;;;82.60;42.27;;;;;;;4.69;100.00;95677.72;5020264;28;20193;-76
2022/11/14 02:50:34;;;;;;;83.83;41.43;;;;;;;4.63;100.00;95677.53;5019204;28;20657;-76
2022/11/14 02:53:01;;;;;;;78.80;39.93;;;;;;;4.69;100.00;95679.50;5018448;28;20201;-76
2022/11/14 02:55:29;;;;;;;82.77;39.43;;;;;;;4.68;100.00;95688.16;5017614;28;20208;-75
2022/11/14 02:57:56;;;;;;;83.93;38.43;;;;;;;4.66;100.00;95678.03;5019451;28;20207;-76
2022/11/14 03:00:23;;;;;;;77.00;37.70;;;;;;;4.63;100.00;95680.94;5016880;28;20234;-76
2022/11/14 03:02:50;;;;;;;79.03;37.53;;;;;;;4.59;100.00;95680.44;5017783;28;20204;-76
2022/11/14 03:05:17;;;;;;;79.67;38.73;;;;;;;4.53;100.00;95682.84;5022819;28;20230;-75
2022/11/14 03:07:43;;;;;;;77.90;38.57;;;;;;;4.46;100.00;95671.53;5017359;28;20208;-76
2022/11/14 03:10:12;;;;;;;77.77;37.53;;;;;;;4.48;100.00;95669.59;5018479;28;20208;-75
2022/11/14 03:12:40;;;;;;;73.77;36.70;;;;;;;4.47;100.00;95671.38;5020985;28;20215;-75
2022/11/14 03:15:08;;;;;;;70.10;37.07;;;;;;;4.43;100.00;95677.81;5017777;28;20206;-76
2022/11/14 03:17:35;;;;;;;74.93;36.03;;;;;;;4.35;100.00;95674.38;5019290;28;20217;-76
2022/11/14 03:20:02;;;;;;;74.03;35.43;;;;;;;4.28;100.00;95676.75;5016645;28;20905;-76
2022/11/14 03:22:29;;;;;;;72.80;35.87;;;;;;;4.24;100.00;95662.59;5021793;28;20195;-76
2022/11/14 03:24:56;;;;;;;69.97;33.80;;;;;;;4.24;100.00;95670.31;5016599;28;20206;-76
2022/11/14 03:27:23;;;;;;;68.03;32.87;;;;;;;4.22;100.00;95669.66;5021992;28;20215;-76
2022/11/14 03:29:51;;;;;;;67.27;32.37;;;;;;;4.14;100.00;95663.66;5016268;28;20879;-76
2022/11/14 03:32:18;;;;;;;64.17;32.27;;;;;;;4.17;100.00;95663.38;5019090;28;20331;-76
2022/11/14 03:34:45;;;;;;;65.93;32.10;;;;;;;4.18;100.00;95670.13;5021462;28;20206;-76
2022/11/14 03:37:12;;;;;;;60.97;31.43;;;;;;;4.22;100.00;95669.66;5025872;28;20670;-75
2022/11/14 03:39:39;;;;;;;71.60;33.43;;;;;;;4.22;100.00;95658.56;5020222;28;20906;-76
2022/11/14 03:42:06;;;;;;;65.80;32.73;;;;;;;4.29;100.00;95667.28;5017598;28;20640;-76
2022/11/14 03:44:32;;;;;;;71.53;32.77;;;;;;;4.32;100.00;95670.38;5023410;28;20191;-76
2022/11/14 03:47:01;;;;;;;66.73;32.43;;;;;;;4.25;100.00;95653.91;5015502;28;20203;-76
2022/11/14 03:49:27;;;;;;;63.13;31.90;;;;;;;4.22;100.00;95672.22;5018851;28;20190;-76
2022/11/14 03:51:54;;;;;;;65.53;32.27;;;;;;;4.25;100.00;95665.97;5017395;28;20227;-75
2022/11/14 03:54:21;;;;;;;65.17;32.00;;;;;;;4.33;100.00;95664.25;5017121;28;20198;-76
2022/11/14 03:56:48;;;;;;;62.10;31.30;;;;;;;4.34;100.00;95670.19;5015722;28;20203;-76
2022/11/14 03:59:15;;;;;;;65.13;30.67;;;;;;;4.31;100.00;95665.34;5015678;28;20196;-76
2022/11/14 04:01:41;;;;;;;60.80;30.80;;;;;;;4.28;100.00;95663.09;5018590;28;20215;-76
2022/11/14 04:04:11;;;;;;;62.07;30.60;;;;;;;4.35;100.00;95656.38;5016157;28;20231;-76
2022/11/14 04:06:38;;;;;;;66.43;31.77;;;;;;;4.35;100.00;95664.09;5017478;28;20302;-77
2022/11/14 04:09:06;;;;;;;69.50;31.80;;;;;;;4.37;100.00;95660.41;5017254;28;20229;-77
2022/11/14 04:11:33;;;;;;;70.03;33.60;;;;;;;4.37;100.00;95659.59;5026223;28;20306;-77
2022/11/14 04:13:59;;;;;;;61.30;31.30;;;;;;;4.37;100.00;95659.59;5015395;28;20206;-76
2022/11/14 04:16:26;;;;;;;65.23;32.97;;;;;;;4.38;100.00;95668.94;5021712;28;20713;-76
2022/11/14 04:18:53;;;;;;;65.07;32.30;;;;;;;4.40;100.00;95665.25;5016236;28;20234;-77
2022/11/14 04:21:21;;;;;;;63.60;32.27;;;;;;;4.44;100.00;95660.59;5018776;28;20191;-76
2022/11/14 04:23:48;;;;;;;69.70;34.20;;;;;;;4.48;100.00;95665.28;5017020;28;20218;-75
2022/11/14 04:26:15;;;;;;;70.10;33.17;;;;;;;4.54;100.00;95662.06;5019850;28;20231;-76
2022/11/14 04:28:42;;;;;;;66.67;33.10;;;;;;;4.62;100.00;95661.28;5017490;28;20203;-76
2022/11/14 04:31:09;;;;;;;66.03;32.50;;;;;;;4.59;100.00;95656.44;5017765;28;20195;-76
2022/11/14 04:33:35;;;;;;;65.83;33.10;;;;;;;4.60;100.00;95658.06;5020717;28;20199;-77
2022/11/14 04:36:02;;;;;;;68.93;34.07;;;;;;;4.54;100.00;95646.63;5020808;28;20226;-76
2022/11/14 04:38:30;;;;;;;74.63;35.73;;;;;;;4.64;100.00;95661.97;5017714;28;20197;-78
2022/11/14 04:40:57;;;;;;;75.63;35.90;;;;;;;4.71;100.00;95659.53;5031010;28;20758;-78
2022/11/14 04:43:24;;;;;;;78.83;37.50;;;;;;;4.66;100.00;95649.72;5019791;28;20223;-79
2022/11/14 04:45:51;;;;;;;81.87;38.20;;;;;;;4.71;100.00;95655.19;5020929;28;20207;-79
2022/11/14 04:48:17;;;;;;;86.97;40.60;;;;;;;4.65;100.00;95653.25;5024619;28;20199;-78
2022/11/14 04:50:45;;;;;;;83.30;40.17;;;;;;;4.68;100.00;95662.41;5023437;28;20219;-78
2022/11/14 04:53:12;;;;;;;88.63;39.57;;;;;;;4.68;100.00;95655.50;5023744;28;20191;-78
2022/11/14 04:55:40;;;;;;;74.80;35.07;;;;;;;4.67;100.00;95656.50;5022210;28;20193;-78
2022/11/14 04:58:07;;;;;;;75.37;35.70;;;;;;;4.64;100.00;95650.84;5021689;28;20658;-78
2022/11/14 05:00:33;;;;;;;85.70;36.47;;;;;;;4.55;100.00;95644.88;5025386;28;20250;-78
2022/11/14 05:03:01;;;;;;;79.27;36.20;;;;;;;4.58;100.00;95644.56;5031498;28;20219;-78
2022/11/14 05:05:27;;;;;;;74.17;33.90;;;;;;;4.57;100.00;95641.19;5027990;28;20225;-78
2022/11/14 05:07:54;;;;;;;79.13;35.37;;;;;;;4.54;100.00;95645.81;5030490;28;20214;-79
2022/11/14 05:10:21;;;;;;;87.07;36.60;;;;;;;4.55;100.00;95655.16;5025185;28;20660;-78
2022/11/14 05:12:53;;;;;;;100.47;38.00;;;;;;;4.58;100.00;95652.28;5027916;28;20732;-81
2022/11/14 05:15:20;;;;;;;97.70;37.87;;;;;;;4.53;100.00;95660.44;5023854;28;20200;-77
2022/11/14 05:17:46;;;;;;;101.83;38.37;;;;;;;4.49;100.00;95663.50;5024612;28;20199;-78
2022/11/14 05:20:13;;;;;;;100.63;39.80;;;;;;;4.52;100.00;95663.19;5022326;28;20192;-78
2022/11/14 05:22:40;;;;;;;112.43;40.07;;;;;;;4.54;100.00;95669.00;5028036;28;20341;-78
2022/11/14 05:25:08;;;;;;;108.73;40.67;;;;;;;4.50;100.00;95665.13;5019745;28;20204;-78
2022/11/14 05:27:35;;;;;;;121.87;42.20;;;;;;;4.63;100.00;95667.25;5031625;28;20593;-78
2022/11/14 05:30:04;;;;;;;123.80;44.93;;;;;;;4.57;100.00;95651.47;5027708;28;20202;-78
2022/11/14 05:32:30;;;;;;;119.43;43.63;;;;;;;4.62;100.00;95668.22;5025437;28;20200;-78
2022/11/14 05:34:57;;;;;;;115.77;41.60;;;;;;;4.71;100.00;95673.22;5025723;28;20278;-78
2022/11/14 05:37:24;;;;;;;109.53;40.50;;;;;;;4.70;100.00;95670.81;5027159;28;20225;-78
2022/11/14 05:39:51;;;;;;;107.17;37.43;;;;;;;4.72;100.00;95664.53;5026413;28;20662;-76
2022/11/14 05:42:17;;;;;;;113.97;37.73;;;;;;;4.75;100.00;95668.56;5031132;28;20223;-79
2022/11/14 05:44:44;;;;;;;120.00;36.87;;;;;;;4.73;100.00;95660.22;5028012;28;20298;-77
2022/11/14 05:47:12;;;;;;;124.77;39.67;;;;;;;4.79;100.00;95662.16;5031309;28;20195;-77
2022/11/14 05:49:39;;;;;;;113.07;38.27;;;;;;;4.62;100.00;95668.22;5021987;28;20197;-78
2022/11/14 05:52:06;;;;;;;108.63;37.27;;;;;;;4.41;100.00;95664.28;5018792;28;20641;-78
2022/11/14 05:54:32;;;;;;;100.80;37.40;;;;;;;4.39;100.00;95673.91;5017104;28;20199;-77
2022/11/14 05:56:59;;;;;;;110.80;39.80;;;;;;;4.36;100.00;95674.22;5019758;28;20675;-78
2022/11/14 05:59:26;;;;;;;107.67;38.53;;;;;;;4.40;100.00;95672.97;5024700;28;20290;-78
2022/11/14 06:01:53;;;;;;;107.67;38.50;;;;;;;4.52;100.00;95676.06;5017649;28;20238;-78
2022/11/14 06:04:22;;;;;;;122.20;39.57;;;;;;;4.59;100.00;95680.44;5017446;28;20215;-78
2022/11/14 06:06:48;;;;;;;123.60;40.83;;;;;;;4.65;100.00;95680.78;5022704;28;20211;-79
2022/11/14 06:09:15;;;;;;;118.47;41.13;;;;;;;4.60;100.00;95686.38;5021576;28;20208;-78
2022/11/14 06:11:42;;;;;;;115.57;42.10;;;;;;;4.60;100.00;95676.09;5018966;28;20211;-77
2022/11/14 06:14:09;;;;;;;115.90;43.97;;;;;;;4.58;100.00;95689.13;5017738;28;20195;-76
2022/11/14 06:16:35;;;;;;;132.63;45.37;;;;;;;4.62;100.00;95689.59;5017134;28;20191;-78
2022/11/14 06:19:04;;;;;;;130.87;42.77;;;;;;;4.68;100.00;95694.13;5021219;28;20564;-77
2022/11/14 06:21:32;;;;;;;128.40;40.90;;;;;;;4.39;100.00;95691.94;5021666;28;20253;-77
2022/11/14 06:23:59;;;;;;;130.03;41.17;;;;;;;4.32;100.00;95693.53;5019592;28;20210;-78
2022/11/14 06:26:29;;;;;;;122.30;40.03;;;;;;;4.18;100.00;95686.38;5020319;28;21210;-77
2022/11/14 06:28:56;;;;;;;118.17;41.80;;;;;;;4.06;100.00;95684.22;5025451;28;20224;-77
2022/11/14 06:31:24;;;;;;;111.33;38.33;;;;;;;3.69;100.00;95669.84;5022975;28;20206;-78
2022/11/14 06:33:51;;;;;;;118.50;39.33;;;;;;;3.75;100.00;95673.59;5017841;28;20203;-77
2022/11/14 06:36:18;;;;;;;99.10;40.17;;;;;;;3.89;100.00;95685.88;5018058;28;20202;-77
2022/11/14 06:38:46;;;;;;;114.20;39.93;;;;;;;4.01;100.00;95690.59;5022538;28;20207;-79
2022/11/14 06:41:15;;;;;;;103.60;38.27;;;;;;;4.16;100.00;95687.47;5019169;28;20708;-77
2022/11/14 06:43:44;;;;;;;99.83;37.50;;;;;;;4.24;100.00;95685.75;5021479;28;20293;-78
2022/11/14 06:46:13;;;;;;;98.73;37.40;;;;;;;4.32;100.00;95672.13;5025096;28;20262;-79
2022/11/14 06:48:41;;;;;;;98.50;37.80;;;;;;;4.45;100.00;95681.00;5024387;28;20195;-80
2022/11/14 06:51:08;;;;;;;96.37;36.40;;;;;;;4.54;100.00;95677.50;5026690;28;20208;-79
2022/11/14 06:53:36;;;;;;;93.30;36.73;;;;;;;4.61;100.00;95682.84;5030240;28;20707;-78
2022/11/14 06:56:06;;;;;;;97.70;37.53;;;;;;;4.67;100.00;95679.66;5027044;28;20203;-78
2022/11/14 06:58:34;;;;;;;91.47;37.53;;;;;;;4.69;100.00;95664.84;5022761;28;20188;-79
2022/11/14 07:01:05;;;;;;;92.80;37.10;;;;;;;4.80;100.00;95684.34;5024037;28;20670;-78
2022/11/14 07:03:32;;;;;;;98.13;37.27;;;;;;;4.81;100.00;95673.91;5019539;28;20256;-78
2022/11/14 07:05:59;;;;;;;102.00;37.73;;;;;;;4.85;100.00;95669.25;5028291;28;20228;-78
2022/11/14 07:08:26;;;;;;;99.60;38.33;;;;;;;4.97;100.00;95673.13;5022978;28;20209;-78
2022/11/14 07:10:53;;;;;;;99.70;38.10;;;;;;;4.99;100.00;95674.56;5019510;28;20666;-77
2022/11/14 07:13:21;;;;;;;93.47;37.87;;;;;;;4.97;100.00;95678.28;5024108;28;20202;-78
2022/11/14 07:15:51;;;;;;;101.57;39.60;;;;;;;5.01;100.00;95677.81;5033684;28;20196;-78
2022/11/14 07:18:18;;;;;;;98.37;38.97;;;;;;;5.06;100.00;95683.28;5028071;28;20207;-76
2022/11/14 07:20:45;;;;;;;97.73;38.80;;;;;;;5.10;100.00;95679.44;5019831;28;20216;-76
2022/11/14 07:23:12;;;;;;;104.20;39.87;;;;;;;5.08;100.00;95670.22;5020209;28;20225;-76
2022/11/14 07:25:39;;;;;;;109.43;42.57;;;;;;;5.15;100.00;95689.25;5018001;28;20663;-76
2022/11/14 07:28:06;;;;;;;113.37;41.67;;;;;;;5.05;100.00;95676.50;5019325;28;20558;-77
2022/11/14 07:30:34;;;;;;;112.13;41.43;;;;;;;5.18;100.00;95683.78;5019026;28;20849;-76
2022/11/14 07:33:01;;;;;;;132.53;43.30;;;;;;;5.14;100.00;95669.59;5020731;28;20213;-75
2022/11/14 07:35:28;;;;;;;117.17;43.40;;;;;;;5.16;100.00;95672.84;5024582;28;20266;-75
2022/11/14 07:38:02;;;;;;;161.10;44.43;;;;;;;4.82;100.00;95675.50;5017425;28;20214;-77
2022/11/14 07:40:29;;;;;;;135.27;44.10;;;;;;;4.48;100.00;95669.59;5024432;28;20208;-76
2022/11/14 07:42:58;;;;;;;120.63;45.63;;;;;;;4.44;100.00;95666.53;5022677;28;20227;-78
2022/11/14 07:45:25;;;;;;;123.43;46.17;;;;;;;4.53;100.00;95662.25;5021329;28;20645;-78
2022/11/14 07:47:56;;;;;;;130.57;45.90;;;;;;;4.68;100.00;95667.56;5018260;28;20204;-76
2022/11/14 07:50:24;;;;;;;131.87;45.77;;;;;;;4.76;100.00;95670.97;5021571;28;20203;-78
2022/11/14 07:52:51;;;;;;;134.90;46.13;;;;;;;4.88;100.00;95667.16;5018462;28;20196;-77
2022/11/14 07:55:19;;;;;;;132.80;49.00;;;;;;;4.93;100.00;95664.13;5021304;28;20262;-77
2022/11/14 07:57:46;;;;;;;133.93;48.43;;;;;;;5.01;100.00;95662.38;5020154;28;20576;-77
2022/11/14 08:00:14;;;;;;;131.63;47.77;;;;;;;5.06;100.00;95662.69;5018964;28;20198;-77
2022/11/14 08:02:41;;;;;;;132.43;49.13;;;;;;;5.08;100.00;95659.94;5025815;28;20640;-78
2022/11/14 08:05:10;;;;;;;137.33;48.87;;;;;;;5.16;100.00;95657.38;5026140;28;20589;-80
2022/11/14 08:07:36;;;;;;;135.23;49.13;;;;;;;5.21;100.00;95662.88;5020441;28;20210;-77
2022/11/14 08:10:04;;;;;;;136.30;50.13;;;;;;;5.27;100.00;95658.84;5021894;28;20323;-78
2022/11/14 08:12:30;;;;;;;131.97;50.70;;;;;;;5.30;100.00;95658.53;5021528;28;20192;-76
2022/11/14 08:14:57;;;;;;;133.20;48.80;;;;;;;5.35;100.00;95658.84;5018546;28;20627;-77
2022/11/14 08:17:25;;;;;;;127.97;47.17;;;;;;;5.39;100.00;95660.94;5017131;28;20209;-77
2022/11/14 08:19:52;;;;;;;137.63;49.03;;;;;;;5.38;100.00;95664.47;5020237;28;20201;-77
2022/11/14 08:22:20;;;;;;;132.63;48.23;;;;;;;5.48;100.00;95659.16;5021392;28;20197;-78
2022/11/14 08:24:47;;;;;;;128.03;48.60;;;;;;;5.58;100.00;95655.44;5021757;28;20705;-78
2022/11/14 08:27:14;;;;;;;129.93;48.30;;;;;;;5.63;100.00;95657.53;5022251;28;20197;-76
2022/11/14 08:29:41;;;;;;;138.97;49.33;;;;;;;5.68;100.00;95652.72;5022512;28;20205;-76
2022/11/14 08:32:08;;;;;;;132.90;50.20;;;;;;;5.76;100.00;95649.31;5020512;28;20220;-76
2022/11/14 08:34:35;;;;;;;112.10;45.73;;;;;;;5.82;100.00;95654.63;5025514;28;20242;-77
2022/11/14 08:37:02;;;;;;;128.37;50.43;;;;;;;5.79;100.00;95649.78;5023702;28;20263;-77
2022/11/14 08:39:30;;;;;;;119.07;46.73;;;;;;;5.77;100.00;95650.94;5023769;28;20204;-77
2022/11/14 08:41:57;;;;;;;127.23;49.27;;;;;;;5.76;100.00;95649.31;5023438;28;20205;-78
2022/11/14 08:44:24;;;;;;;115.40;48.07;;;;;;;5.77;100.00;95646.59;5019456;28;20231;-77
2022/11/14 08:46:51;;;;;;;123.23;47.73;;;;;;;5.86;100.00;95642.25;5020210;28;20584;-77
2022/11/14 08:49:18;;;;;;;118.40;48.60;;;;;;;5.97;100.00;95641.91;5025750;28;20202;-77
2022/11/14 08:51:45;;;;;;;127.00;49.13;;;;;;;6.11;100.00;95634.28;5024127;28;20748;-77
2022/11/14 08:54:12;;;;;;;119.13;47.43;;;;;;;6.24;100.00;95636.31;5025038;28;20193;-77
2022/11/14 08:56:40;;;;;;;116.13;44.77;;;;;;;6.40;100.00;95635.47;5020812;28;20202;-77
2022/11/14 08:59:07;;;;;;;121.90;47.53;;;;;;;6.52;100.00;95629.72;5020771;28;20207;-77
2022/11/14 09:01:33;;;;;;;106.60;44.27;;;;;;;6.65;100.00;95631.78;5022434;28;20263;-76
2022/11/14 09:04:01;;;;;;;120.20;47.10;;;;;;;6.82;100.00;95636.69;5018570;28;20710;-76
2022/11/14 09:06:28;;;;;;;101.67;44.73;;;;;;;6.90;100.00;95622.91;5018224;28;20225;-79
2022/11/14 09:08:55;;;;;;;107.57;45.40;;;;;;;7.07;100.00;95618.47;5020774;28;20866;-78
2022/11/14 09:11:22;;;;;;;93.93;44.00;;;;;;;7.24;100.00;95612.97;5019213;28;20204;-76
2022/11/14 09:13:50;;;;;;;97.17;44.10;;;;;;;7.42;100.00;95616.06;5026072;28;20203;-78
2022/11/14 09:16:17;;;;;;;95.67;43.00;;;;;;;7.57;100.00;95613.53;5021639;28;20202;-78
2022/11/14 09:18:44;;;;;;;89.77;42.50;;;;;;;7.71;100.00;95611.94;5020822;28;20202;-78
2022/11/14 09:21:11;;;;;;;91.37;41.47;;;;;;;7.97;100.00;95607.94;5018640;28;20199;-78
2022/11/14 09:23:38;;;;;;;94.43;41.87;;;;;;;8.29;100.00;95603.41;5029235;28;20607;-79
2022/11/14 09:26:05;;;;;;;84.80;41.87;;;;;;;8.50;100.00;95604.28;5030789;28;20203;-78
2022/11/14 09:28:33;;;;;;;77.50;40.27;;;;;;;8.53;98.28;95608.31;5019578;28;20199;-77
2022/11/14 09:31:05;;;;;;;80.07;38.17;;;;;;;8.39;95.54;95607.34;5023615;28;20206;-77
2022/11/14 09:33:32;;;;;;;83.40;41.40;;;;;;;8.57;100.00;95608.75;5021485;28;20194;-77
2022/11/14 09:36:00;;;;;;;96.60;42.03;;;;;;;9.34;97.97;95596.78;5020227;28;20286;-78
2022/11/14 09:38:27;;;;;;;95.67;42.43;;;;;;;10.14;94.66;95599.75;5028285;28;20286;-78
2022/11/14 09:41:05;;;;;;;83.47;41.67;;;;;;;11.15;90.40;95597.13;5016935;28;20203;-76
2022/11/14 09:43:47;;;;;;;85.33;41.10;;;;;;;11.01;86.00;95595.50;5020159;28;20218;-78
2022/11/14 09:46:21;;;;;;;81.33;42.03;;;;;;;10.43;89.20;95583.91;5023233;28;20191;-79
2022/11/14 09:48:49;;;;;;;79.53;40.83;;;;;;;11.20;89.19;95589.53;5019527;28;20569;-77
2022/11/14 09:51:19;;;;;;;95.97;43.67;;;;;;;12.58;83.49;95585.97;5028780;28;20209;-77
2022/11/14 09:53:52;;;;;;;82.07;43.77;;;;;;;13.78;77.53;95596.28;5019500;28;20204;-77
2022/11/14 09:56:23;;;;;;;86.03;44.40;;;;;;;14.72;74.07;95592.31;5019260;28;20243;-78
2022/11/14 09:58:50;;;;;;;87.43;45.80;;;;;;;15.67;70.72;95602.91;5018784;28;20458;-79
2022/11/14 10:01:32;;;;;;;91.70;45.40;;;;;;;16.23;68.06;95597.09;5016926;28;20211;-79
2022/11/14 10:04:10;;;;;;;82.67;42.70;;;;;;;16.79;65.82;95594.66;5019309;28;20226;-79
2022/11/14 10:06:49;;;;;;;85.43;45.57;;;;;;;17.41;63.54;95586.84;5024427;28;20195;-78
2022/11/14 10:09:40;;;;;;;86.73;44.73;;;;;;;17.80;61.28;95587.78;5021188;28;20564;-78
2022/11/14 10:12:14;;;;;;;88.43;45.17;;;;;;;18.25;59.85;95580.53;5020507;28;20203;-78
2022/11/14 10:14:55;;;;;;;83.53;45.80;;;;;;;18.17;58.97;95580.16;5024681;28;20192;-78
2022/11/14 10:17:43;;;;;;;78.70;44.07;;;;;;;18.61;57.92;95572.09;5019470;28;20198;-78
2022/11/14 10:20:20;;;;;;;80.60;44.33;;;;;;;18.29;57.76;95573.78;5020733;28;20191;-78
2022/11/14 10:23:11;;;;;;;72.83;42.23;;;;;;;17.78;58.46;95545.13;5027413;28;20225;-78
2022/11/14 10:25:52;;;;;;;78.60;41.90;;;;;;;18.14;57.66;95563.81;5019671;28;20207;-77
2022/11/14 10:28:38;;;;;;;78.80;44.03;;;;;;;18.93;56.01;95571.41;5017095;28;20191;-78
2022/11/14 10:31:14;;;;;;;72.53;43.47;;;;;;;18.98;55.19;95561.72;5019805;28;20633;-78
2022/11/14 10:33:52;;;;;;;75.70;44.00;;;;;;;19.24;55.02;95568.06;5020609;28;20203;-78
2022/11/14 10:36:28;;;;;;;76.93;44.47;;;;;;;19.08;55.64;95556.53;5017104;28;20192;-77
2022/11/14 10:39:05;;;;;;;74.47;43.63;;;;;;;18.92;55.01;95540.84;5018548;28;20218;-77
2022/11/14 10:41:32;;;;;;;75.23;44.47;;;;;;;18.90;55.46;95546.38;5024502;28;20191;-77
2022/11/14 10:44:00;;;;;;;75.13;43.77;;;;;;;19.54;53.68;95546.44;5016163;28;20223;-78
2022/11/14 10:46:31;;;;;;;82.40;45.60;;;;;;;19.94;53.33;95546.75;5022564;28;20206;-77
2022/11/14 10:49:00;;;;;;;76.77;45.80;;;;;;;19.80;53.06;95540.31;5020993;28;20199;-77
2022/11/14 10:51:33;;;;;;;78.07;46.10;;;;;;;20.06;51.73;95539.44;5022051;28;20902;-76
2022/11/14 10:54:05;;;;;;;77.80;45.87;;;;;;;20.29;51.95;95548.84;5018489;28;20218;-74
2022/11/14 10:56:32;;;;;;;86.82;45.67;;;;;;;20.52;50.32;95540.50;5016999;28;20199;-76
2022/11/14 10:58:59;;;;;;;83.82;46.08;;;;;;;20.59;49.82;95532.34;5017082;28;20686;-76
2022/11/14 11:01:39;;;;;;;74.20;46.85;;;;;;;20.79;49.38;95533.22;5017524;28;20210;-75
2022/11/14 11:04:21;;;;;;;84.18;46.25;;;;;;;20.85;48.59;95523.44;5012680;28;20239;-75
2022/11/14 11:06:49;;;;;;;71.30;44.90;;;;;;;20.97;48.56;95531.16;5016160;28;20253;-78
2022/11/14 11:12:05;;;;;;;75.20;46.75;;;;;;;21.16;48.28;95530.41;5021831;28;20226;-77
2022/11/14 11:14:33;;;;;;;77.38;47.33;;;;;;;21.15;48.49;95520.13;5016604;28;20195;-76
2022/11/14 11:17:18;;;;;;;83.43;48.40;;;;;;;21.14;48.21;95523.81;5018005;28;20590;-78
2022/11/14 11:19:47;;;;;;;74.47;47.05;;;;;;;21.34;47.40;95518.53;5018801;28;20205;-77
2022/11/14 11:22:27;;;;;;;80.90;47.78;;;;;;;21.53;46.42;95516.19;5016448;28;20191;-76